createdAt,value
2019-02-20T00:02:19.644Z,-0.71
2019-02-20T00:04:51.508Z,-0.60
2019-02-20T00:07:23.158Z,-0.63
2019-02-20T00:09:54.965Z,-0.77
2019-02-20T00:12:26.823Z,-0.77
2019-02-20T00:14:58.432Z,-0.83
2019-02-20T00:17:31.212Z,-0.90
2019-02-20T00:20:02.872Z,-1.11
2019-02-20T00:22:40.319Z,-0.99
2019-02-20T00:25:07.834Z,-1.06
2019-02-20T00:27:39.439Z,-1.09
2019-02-20T00:30:11.431Z,-1.03
2019-02-20T00:32:42.965Z,-0.98
2019-02-20T00:35:14.342Z,-0.87
2019-02-20T00:37:46.207Z,-1.15
2019-02-20T00:40:20.121Z,-0.91
2019-02-20T00:42:52.699Z,-1.04
2019-02-20T00:46:10.954Z,-1.15
2019-02-20T00:48:56.219Z,-1.21
2019-02-20T00:51:53.369Z,-1.13
2019-02-20T00:54:25.105Z,-1.29
2019-02-20T00:56:58.934Z,-1.11
2019-02-20T00:59:32.744Z,-1.09
2019-02-20T01:02:04.395Z,-1.15
2019-02-20T01:04:36.259Z,-1.20
2019-02-20T01:07:07.859Z,-1.31
2019-02-20T01:09:42.421Z,-1.26
2019-02-20T01:12:14.161Z,-1.28
2019-02-20T01:15:05.443Z,-1.28
2019-02-20T01:17:39.220Z,-1.39
2019-02-20T01:20:10.976Z,-1.53
2019-02-20T01:22:42.615Z,-1.34
2019-02-20T01:25:13.975Z,-1.35
2019-02-20T01:27:45.325Z,-1.45
2019-02-20T01:30:16.635Z,-1.59
2019-02-20T01:32:50.187Z,-1.47
2019-02-20T01:35:22.149Z,-1.45
2019-02-20T01:37:53.895Z,-1.66
2019-02-20T01:40:25.657Z,-1.42
2019-02-20T01:42:57.305Z,-1.30
2019-02-20T01:45:38.287Z,-1.36
2019-02-20T01:48:10.244Z,-1.54
2019-02-20T01:50:42.004Z,-1.54
2019-02-20T01:53:13.597Z,-1.49
2019-02-20T01:55:47.269Z,-1.42
2019-02-20T01:58:18.681Z,-1.47
2019-02-20T02:00:50.373Z,-1.42
2019-02-20T02:03:22.154Z,-1.43
2019-02-20T02:06:13.143Z,-1.52
2019-02-20T02:08:44.906Z,-1.46
2019-02-20T02:11:16.554Z,-1.47
2019-02-20T02:13:47.880Z,-1.50
2019-02-20T02:16:19.228Z,-1.71
2019-02-20T02:18:50.563Z,-1.66
2019-02-20T02:21:22.010Z,-1.56
2019-02-20T02:23:54.959Z,-1.59
2019-02-20T02:26:26.343Z,-1.60
2019-02-20T02:28:57.626Z,-1.54
2019-02-20T02:31:31.054Z,-1.73
2019-02-20T02:34:02.788Z,-1.67
2019-02-20T02:36:49.704Z,-1.48
2019-02-20T02:39:21.154Z,-1.39
2019-02-20T02:41:52.866Z,-1.54
2019-02-20T02:44:24.275Z,-1.66
2019-02-20T02:46:56.690Z,-1.54
2019-02-20T02:49:30.341Z,-1.49
2019-02-20T02:52:02.098Z,-1.50
2019-02-20T02:54:33.747Z,-1.48
2019-02-20T02:57:05.608Z,-1.60
2019-02-20T02:59:37.229Z,-1.63
2019-02-20T03:02:08.616Z,-1.76
2019-02-20T03:04:42.112Z,-1.86
2019-02-20T03:07:13.868Z,-2.04
2019-02-20T03:09:46.013Z,-2.02
2019-02-20T03:12:18.164Z,-1.79
2019-02-20T03:14:49.824Z,-1.65
2019-02-20T03:17:21.152Z,-1.77
2019-02-20T03:19:52.518Z,-1.77
2019-02-20T03:22:23.813Z,-1.72
2019-02-20T03:24:55.162Z,-1.67
2019-02-20T03:27:27.628Z,-1.83
2019-02-20T03:30:01.499Z,-1.69
2019-02-20T03:32:34.426Z,-1.93
2019-02-20T03:35:06.697Z,-1.76
2019-02-20T03:37:38.458Z,-1.98
2019-02-20T03:40:12.985Z,-1.96
2019-02-20T03:42:44.813Z,-1.91
2019-02-20T03:45:18.644Z,-1.85
2019-02-20T03:47:50.270Z,-1.72
2019-02-20T03:50:24.414Z,-1.68
2019-02-20T03:52:56.071Z,-1.69
2019-02-20T03:55:27.952Z,-1.57
2019-02-20T03:58:01.091Z,-1.62
2019-02-20T04:00:34.417Z,-1.77
2019-02-20T04:03:07.864Z,-1.80
2019-02-20T04:05:38.968Z,-1.84
2019-02-20T04:08:10.688Z,-1.55
2019-02-20T04:10:44.553Z,-1.77
2019-02-20T04:13:15.882Z,-1.75
2019-02-20T04:15:55.722Z,-1.68
2019-02-20T04:18:27.678Z,-1.85
2019-02-20T04:20:59.450Z,-2.03
2019-02-20T04:23:36.897Z,-1.85
2019-02-20T04:26:09.889Z,-1.89
2019-02-20T04:28:41.205Z,-1.81
2019-02-20T04:31:12.189Z,-1.62
2019-02-20T04:33:46.017Z,-1.67
2019-02-20T04:36:17.672Z,-1.58
2019-02-20T04:38:49.470Z,-1.81
2019-02-20T04:41:21.187Z,-1.76
2019-02-20T04:43:52.594Z,-1.86
2019-02-20T04:46:23.993Z,-1.77
2019-02-20T04:48:57.515Z,-1.56
2019-02-20T04:51:29.146Z,-1.62
2019-02-20T04:54:00.826Z,-1.56
2019-02-20T04:56:32.179Z,-1.53
2019-02-20T04:59:03.678Z,-1.32
2019-02-20T05:01:35.048Z,-1.21
2019-02-20T05:04:06.386Z,-1.38
2019-02-20T05:06:37.957Z,-1.09
2019-02-20T05:09:12.833Z,-1.09
2019-02-20T05:11:44.257Z,-1.15
2019-02-20T05:14:17.788Z,-1.13
2019-02-20T05:16:49.113Z,-1.14
2019-02-20T05:19:20.419Z,-0.96
2019-02-20T05:21:51.780Z,-0.81
2019-02-20T05:24:25.085Z,-0.68
2019-02-20T05:26:58.573Z,-0.66
2019-02-20T05:29:30.448Z,-0.25
2019-02-20T05:32:09.155Z,-0.13
2019-02-20T05:34:40.788Z,-0.11
2019-02-20T05:37:12.135Z,0.19
2019-02-20T05:39:43.591Z,0.64
2019-02-20T05:42:14.855Z,0.74
2019-02-20T05:44:46.090Z,1.07
2019-02-20T05:47:17.459Z,0.69
2019-02-20T05:49:50.920Z,0.86
2019-02-20T05:52:22.497Z,0.74
2019-02-20T05:54:53.771Z,0.92
2019-02-20T06:01:43.629Z,1.27
2019-02-20T06:04:14.889Z,1.63
2019-02-20T06:06:46.126Z,1.80
2019-02-20T06:09:17.415Z,2.50
2019-02-20T06:11:48.620Z,2.92
2019-02-20T06:14:19.905Z,4.16
2019-02-20T06:16:53.326Z,4.88
2019-02-20T06:19:24.514Z,4.08
2019-02-20T06:37:33.326Z,4.16
2019-02-20T06:40:09.310Z,5.08
2019-02-20T06:42:42.926Z,4.69
2019-02-20T06:45:14.504Z,3.95
2019-02-20T06:47:45.727Z,4.18
2019-02-20T06:50:17.340Z,4.95
2019-02-20T06:52:50.862Z,6.73
2019-02-20T06:55:22.324Z,8.00
2019-02-20T06:57:53.721Z,5.78
2019-02-20T07:00:27.581Z,6.01
2019-02-20T07:03:05.811Z,5.24
2019-02-20T07:05:42.367Z,5.96
2019-02-20T07:08:34.910Z,6.47
2019-02-20T07:11:37.118Z,5.02
2019-02-20T07:14:42.194Z,5.44
2019-02-20T07:17:36.607Z,5.26
2019-02-20T07:20:46.380Z,4.29
2019-02-20T07:23:35.959Z,4.42
2019-02-20T07:26:16.263Z,4.04
2019-02-20T07:29:07.103Z,4.84
2019-02-20T07:31:38.761Z,3.95
2019-02-20T07:34:15.941Z,3.14
2019-02-20T07:36:51.247Z,3.26
2019-02-20T07:39:27.030Z,3.08
2019-02-20T07:41:58.166Z,2.91
2019-02-20T07:44:30.854Z,3.13
2019-02-20T07:47:05.985Z,3.11
2019-02-20T07:49:42.982Z,3.29
2019-02-20T07:52:14.833Z,3.33
2019-02-20T07:54:46.281Z,3.16
2019-02-20T07:57:19.954Z,3.44
2019-02-20T07:59:51.592Z,3.21
2019-02-20T08:02:24.888Z,3.11
2019-02-20T08:04:56.325Z,3.19
2019-02-20T08:07:27.459Z,3.38
2019-02-20T08:09:58.623Z,3.38
2019-02-20T08:12:29.795Z,3.35
2019-02-20T08:15:01.007Z,3.24
2019-02-20T08:17:32.233Z,3.33
2019-02-20T08:20:03.751Z,3.19
2019-02-20T08:22:35.066Z,3.48
2019-02-20T08:25:07.787Z,3.56
2019-02-20T08:27:41.971Z,3.75
2019-02-20T08:30:13.433Z,3.88
2019-02-20T08:33:04.114Z,3.80
2019-02-20T08:35:37.305Z,3.68
2019-02-20T08:38:08.917Z,3.72
2019-02-20T08:40:40.696Z,3.77
2019-02-20T08:43:12.355Z,3.92
2019-02-20T08:45:43.897Z,4.18
2019-02-20T08:48:15.535Z,4.09
2019-02-20T08:50:50.802Z,3.75
2019-02-20T08:53:25.657Z,4.10
2019-02-20T08:55:57.135Z,4.39
2019-02-20T08:58:28.392Z,4.27
2019-02-20T09:01:01.124Z,4.55
2019-02-20T09:03:32.417Z,4.33
2019-02-20T09:06:03.606Z,4.15
2019-02-20T09:08:34.797Z,4.12
2019-02-20T09:11:06.107Z,4.17
2019-02-20T09:13:38.576Z,3.86
2019-02-20T09:16:22.316Z,4.17
2019-02-20T09:18:54.178Z,4.25
2019-02-20T09:22:14.354Z,4.57
2019-02-20T09:24:46.133Z,4.51
2019-02-20T09:27:19.819Z,4.19
2019-02-20T09:29:52.502Z,4.40
2019-02-20T09:32:24.200Z,4.44
2019-02-20T09:34:55.347Z,4.71
2019-02-20T09:37:26.874Z,4.30
2019-02-20T09:39:58.132Z,4.43
2019-02-20T09:42:29.478Z,3.99
2019-02-20T09:45:00.725Z,4.23
2019-02-20T09:47:32.122Z,4.60
2019-02-20T09:50:08.377Z,4.26
2019-02-20T09:52:39.761Z,4.39
2019-02-20T09:55:13.279Z,4.67
2019-02-20T09:57:44.834Z,4.69
2019-02-20T10:00:20.753Z,4.68
2019-02-20T10:02:52.506Z,4.55
2019-02-20T10:05:26.030Z,4.78
2019-02-20T10:07:57.197Z,4.62
2019-02-20T10:10:28.601Z,4.97
2019-02-20T10:13:02.729Z,5.03
2019-02-20T10:15:33.916Z,5.06
2019-02-20T10:18:07.610Z,5.12
2019-02-20T10:20:39.240Z,5.20
2019-02-20T10:23:10.966Z,4.70
2019-02-20T10:25:49.118Z,4.79
2019-02-20T10:28:22.401Z,4.92
2019-02-20T10:30:56.206Z,4.98
2019-02-20T10:33:27.470Z,5.10
2019-02-20T10:35:59.108Z,5.31
2019-02-20T10:38:30.648Z,5.10
2019-02-20T10:41:02.437Z,5.10
2019-02-20T10:43:33.778Z,5.39
2019-02-20T10:46:05.614Z,5.28
2019-02-20T10:48:37.353Z,5.30
2019-02-20T10:51:09.051Z,5.42
2019-02-20T10:53:42.033Z,5.27
2019-02-20T10:56:13.485Z,5.18
2019-02-20T10:58:45.260Z,5.38
2019-02-20T11:01:17.015Z,5.39
2019-02-20T11:03:48.666Z,5.65
2019-02-20T11:06:20.046Z,5.56
2019-02-20T11:08:51.226Z,5.61
2019-02-20T11:11:22.567Z,5.48
2019-02-20T11:14:03.030Z,5.63
2019-02-20T11:16:43.234Z,5.59
2019-02-20T11:19:15.695Z,5.57
2019-02-20T11:21:47.076Z,5.67
2019-02-20T11:24:18.292Z,5.64
2019-02-20T11:26:54.849Z,5.43
2019-02-20T11:29:23.370Z,5.89
2019-02-20T11:31:56.562Z,5.91
2019-02-20T11:34:38.531Z,6.03
2019-02-20T11:37:05.271Z,6.01
2019-02-20T11:39:40.070Z,6.01
2019-02-20T11:42:11.374Z,6.09
2019-02-20T11:44:43.845Z,6.14
2019-02-20T11:47:15.494Z,6.17
2019-02-20T11:49:47.139Z,6.22
2019-02-20T11:52:21.968Z,6.38
2019-02-20T11:54:53.234Z,6.25
2019-02-20T11:57:36.118Z,6.62
2019-02-20T12:00:10.778Z,6.60
2019-02-20T12:02:42.515Z,6.81
2019-02-20T12:05:14.237Z,6.25
2019-02-20T12:07:45.823Z,6.10
2019-02-20T12:10:24.237Z,6.46
2019-02-20T12:12:55.706Z,6.37
2019-02-20T12:15:34.164Z,6.23
2019-02-20T12:18:05.472Z,6.16
2019-02-20T12:20:37.035Z,6.23
2019-02-20T12:23:08.511Z,6.04
2019-02-20T12:25:40.013Z,6.12
2019-02-20T12:28:17.095Z,5.99
2019-02-20T12:30:50.396Z,6.24
2019-02-20T12:33:23.893Z,6.31
2019-02-20T12:35:55.768Z,6.32
2019-02-20T12:38:31.453Z,6.63
2019-02-20T12:41:02.752Z,6.83
2019-02-20T12:43:38.659Z,6.93
2019-02-20T12:46:10.045Z,6.57
2019-02-20T12:48:41.892Z,6.44
2019-02-20T12:53:51.017Z,6.73
2019-02-20T12:56:43.753Z,6.94
2019-02-20T12:59:11.590Z,6.90
2019-02-20T13:01:43.231Z,6.91
2019-02-20T13:04:24.734Z,6.72
2019-02-20T13:06:59.439Z,6.49
2019-02-20T13:09:28.827Z,6.76
2019-02-20T13:12:00.671Z,6.88
2019-02-20T13:14:33.055Z,6.74
2019-02-20T13:17:04.342Z,6.81
2019-02-20T13:19:35.679Z,6.61
2019-02-20T13:22:06.983Z,6.50
2019-02-20T13:24:45.469Z,6.44
2019-02-20T13:27:22.805Z,6.52
2019-02-20T13:29:54.530Z,6.62
2019-02-20T13:32:26.268Z,6.56
2019-02-20T13:34:59.538Z,6.58
2019-02-20T13:37:35.090Z,6.58
2019-02-20T13:40:08.898Z,6.57
2019-02-20T13:42:40.547Z,6.44
2019-02-20T13:45:12.105Z,6.35
2019-02-20T13:47:43.560Z,6.38
2019-02-20T13:50:15.434Z,6.44
2019-02-20T13:52:52.568Z,6.45
2019-02-20T13:55:34.223Z,6.54
2019-02-20T13:58:05.191Z,6.35
2019-02-20T14:00:36.484Z,6.30
2019-02-20T14:03:08.234Z,6.32
2019-02-20T14:05:39.948Z,6.39
2019-02-20T14:08:13.917Z,6.32
2019-02-20T14:10:45.681Z,6.48
2019-02-20T14:13:21.158Z,6.46
2019-02-20T14:15:52.770Z,6.49
2019-02-20T14:18:24.431Z,6.40
2019-02-20T14:20:56.190Z,6.32
2019-02-20T14:23:27.748Z,6.45
2019-02-20T14:25:59.456Z,6.48
2019-02-20T14:28:31.806Z,6.34
2019-02-20T14:31:07.129Z,6.46
2019-02-20T14:33:38.863Z,6.28
2019-02-20T14:36:10.142Z,6.35
2019-02-20T14:38:41.564Z,6.31
2019-02-20T14:41:12.961Z,6.37
2019-02-20T14:43:49.898Z,6.42
2019-02-20T14:46:27.317Z,6.26
2019-02-20T14:48:58.994Z,6.38
2019-02-20T14:51:30.757Z,6.33
2019-02-20T14:54:02.159Z,6.36
2019-02-20T14:56:35.534Z,6.26
2019-02-20T14:59:07.027Z,6.31
2019-02-20T15:01:40.895Z,6.35
2019-02-20T15:04:12.668Z,6.39
2019-02-20T15:06:44.217Z,6.39
2019-02-20T15:09:18.484Z,6.25
2019-02-20T15:11:49.885Z,6.32
2019-02-20T15:14:21.481Z,6.31
2019-02-20T15:17:08.554Z,6.33
2019-02-20T15:19:40.322Z,6.38
2019-02-20T15:22:11.957Z,6.19
2019-02-20T15:24:43.287Z,6.28
2019-02-20T15:27:15.163Z,6.29
2019-02-20T15:29:46.688Z,6.26
2019-02-20T15:32:18.059Z,6.30
2019-02-20T15:34:49.496Z,6.32
2019-02-20T15:37:20.905Z,6.17
2019-02-20T15:39:52.575Z,6.19
2019-02-20T15:42:24.000Z,6.14
2019-02-20T15:44:55.620Z,6.11
2019-02-20T15:47:28.336Z,6.08
2019-02-20T15:49:59.869Z,6.10
2019-02-20T15:52:34.479Z,6.21
2019-02-20T15:55:07.471Z,6.29
2019-02-20T15:57:42.024Z,6.18
2019-02-20T16:00:18.972Z,6.20
2019-02-20T16:02:50.757Z,6.22
2019-02-20T16:05:23.558Z,6.19
2019-02-20T16:07:56.754Z,6.20
2019-02-20T16:10:28.343Z,6.29
2019-02-20T16:13:00.067Z,6.11
2019-02-20T16:15:32.390Z,6.19
2019-02-20T16:18:08.828Z,6.19
2019-02-20T16:20:40.471Z,6.13
2019-02-20T16:23:11.955Z,6.11
2019-02-20T16:25:48.152Z,6.21
2019-02-20T16:28:33.554Z,6.21
2019-02-20T16:31:00.785Z,6.21
2019-02-20T16:33:32.883Z,6.13
2019-02-20T16:36:05.498Z,6.08
2019-02-20T16:38:40.137Z,6.20
2019-02-20T16:41:11.914Z,6.23
2019-02-20T16:43:43.588Z,6.06
2019-02-20T16:46:16.962Z,6.11
2019-02-20T16:48:52.613Z,6.13
2019-02-20T16:51:27.645Z,6.18
2019-02-20T16:54:00.553Z,6.11
2019-02-20T16:56:32.284Z,5.98
2019-02-20T16:59:05.146Z,5.88
2019-02-20T17:01:37.064Z,5.94
2019-02-20T17:04:09.500Z,6.00
2019-02-20T17:06:44.072Z,5.96
2019-02-20T17:09:20.017Z,6.03
2019-02-20T17:11:56.435Z,5.91
2019-02-20T17:14:36.579Z,5.87
2019-02-20T17:17:10.789Z,5.89
2019-02-20T17:19:46.903Z,5.92
2019-02-20T17:22:19.768Z,5.90
2019-02-20T17:24:54.000Z,5.82
2019-02-20T17:27:25.484Z,5.69
2019-02-20T17:29:56.862Z,5.82
2019-02-20T17:32:31.161Z,5.79
2019-02-20T17:35:09.089Z,5.84
2019-02-20T17:37:41.831Z,5.71
2019-02-20T17:40:15.302Z,5.77
2019-02-20T17:42:47.183Z,5.69
2019-02-20T17:45:20.219Z,5.65
2019-02-20T17:47:57.302Z,5.57
2019-02-20T17:50:34.358Z,5.40
2019-02-20T17:53:07.236Z,5.34
2019-02-20T17:55:44.248Z,5.33
2019-02-20T17:58:16.424Z,5.20
2019-02-20T18:00:48.934Z,5.19
2019-02-20T18:03:23.688Z,5.03
2019-02-20T18:05:56.556Z,5.16
2019-02-20T18:08:30.479Z,5.06
2019-02-20T18:11:04.620Z,5.05
2019-02-20T18:13:38.459Z,5.06
2019-02-20T18:16:11.263Z,5.06
2019-02-20T18:18:43.413Z,4.93
2019-02-20T18:21:16.755Z,5.02
2019-02-20T18:23:54.571Z,4.95
2019-02-20T18:26:28.676Z,4.93
2019-02-20T18:29:04.603Z,4.81
2019-02-20T18:31:38.305Z,4.94
2019-02-20T18:34:13.070Z,4.74
2019-02-20T18:36:44.379Z,4.80
2019-02-20T18:39:16.660Z,4.82
2019-02-20T18:41:49.717Z,4.74
2019-02-20T18:44:20.716Z,4.72
2019-02-20T18:46:52.924Z,4.74
2019-02-20T18:49:27.356Z,4.67
2019-02-20T18:52:00.199Z,4.61
2019-02-20T18:54:37.003Z,4.64
2019-02-20T18:57:12.981Z,4.72
2019-02-20T18:59:44.817Z,4.83
2019-02-20T19:02:20.727Z,4.67
2019-02-20T19:04:52.565Z,4.60
2019-02-20T19:07:25.377Z,4.61
2019-02-20T19:09:56.967Z,4.53
2019-02-20T19:12:41.852Z,4.57
2019-02-20T19:15:54.461Z,4.62
2019-02-20T19:19:02.698Z,4.51
2019-02-20T19:22:00.771Z,4.53
2019-02-20T19:24:44.521Z,4.48
2019-02-20T19:27:31.191Z,4.43
2019-02-20T19:30:40.036Z,4.46
2019-02-20T19:33:40.787Z,4.56
2019-02-20T19:36:31.833Z,4.36
2019-02-20T19:39:20.219Z,4.61
2019-02-20T19:42:15.677Z,4.61
2019-02-20T19:45:20.494Z,4.48
2019-02-20T19:48:05.485Z,4.39
2019-02-20T19:51:03.719Z,4.42
2019-02-20T19:53:40.825Z,4.57
2019-02-20T19:56:36.803Z,4.55
2019-02-20T19:59:31.282Z,4.49
2019-02-20T20:02:28.589Z,4.32
2019-02-20T20:05:38.735Z,4.45
2019-02-20T20:08:30.786Z,4.26
2019-02-20T20:11:23.449Z,4.41
2019-02-20T20:14:00.704Z,4.56
2019-02-20T20:16:54.780Z,4.52
2019-02-20T20:19:41.310Z,4.62
2019-02-20T20:22:39.461Z,4.59
2019-02-20T20:25:13.071Z,4.46
2019-02-20T20:27:52.543Z,4.48
2019-02-20T20:30:31.381Z,4.47
2019-02-20T20:33:35.147Z,4.55
2019-02-20T20:36:29.016Z,4.51
2019-02-20T20:39:12.491Z,4.61
2019-02-20T20:42:29.468Z,4.47
2019-02-20T20:45:25.111Z,4.41
2019-02-20T20:48:23.761Z,4.52
2019-02-20T20:51:23.281Z,4.52
2019-02-20T20:54:17.952Z,4.54
2019-02-20T20:57:12.935Z,4.49
2019-02-20T20:59:50.270Z,4.46
2019-02-20T21:02:31.268Z,4.63
2019-02-20T21:05:13.785Z,4.53
2019-02-20T21:08:00.467Z,4.42
2019-02-20T21:10:51.769Z,4.61
2019-02-20T21:13:46.691Z,4.40
2019-02-20T21:16:43.621Z,4.52
2019-02-20T21:19:50.206Z,4.36
2019-02-20T21:22:30.136Z,4.27
2019-02-20T21:25:39.425Z,4.06
2019-02-20T21:28:25.730Z,4.19
2019-02-20T21:31:03.092Z,4.24
2019-02-20T21:33:58.806Z,4.15
2019-02-20T21:36:42.090Z,4.17
2019-02-20T21:39:22.491Z,4.21
2019-02-20T21:41:59.982Z,4.33
2019-02-20T21:44:56.989Z,4.24
2019-02-20T21:47:46.814Z,4.24
2019-02-20T21:50:36.594Z,4.33
2019-02-20T21:53:17.161Z,4.33
2019-02-20T21:56:21.835Z,4.46
2019-02-20T21:59:05.836Z,4.31
2019-02-20T22:01:40.773Z,4.32
2019-02-20T22:04:24.394Z,4.34
2019-02-20T22:07:22.987Z,4.23
2019-02-20T22:10:14.006Z,4.15
2019-02-20T22:13:04.980Z,4.11
2019-02-20T22:15:48.508Z,4.21
2019-02-20T22:18:28.770Z,4.10
2019-02-20T22:21:06.202Z,4.18
2019-02-20T22:23:46.756Z,4.11
2019-02-20T22:26:43.447Z,4.14
2019-02-20T22:29:21.043Z,4.09
2019-02-20T22:32:12.238Z,4.16
2019-02-20T22:34:49.598Z,4.13
2019-02-20T22:37:46.820Z,4.05
2019-02-20T22:40:29.575Z,3.98
2019-02-20T22:43:04.354Z,4.14
2019-02-20T22:46:00.893Z,4.10
2019-02-20T22:48:44.231Z,4.02
2019-02-20T22:51:24.535Z,4.01
2019-02-20T22:54:06.364Z,4.19
2019-02-20T22:56:55.795Z,4.07
2019-02-20T22:59:47.364Z,4.02
2019-02-20T23:02:45.980Z,4.10
2019-02-20T23:05:20.400Z,4.06
2019-02-20T23:08:53.718Z,4.05
2019-02-20T23:11:34.085Z,4.05
2019-02-20T23:14:17.466Z,4.10
2019-02-20T23:16:49.344Z,4.15
2019-02-20T23:19:20.647Z,4.13
2019-02-20T23:21:52.014Z,4.16
2019-02-20T23:24:23.263Z,4.01
2019-02-20T23:26:54.501Z,4.00
2019-02-20T23:29:25.748Z,4.13
2019-02-20T23:31:56.976Z,4.07
2019-02-20T23:34:31.164Z,4.19
2019-02-20T23:37:01.264Z,4.16
2019-02-20T23:39:32.621Z,4.11
2019-02-20T23:42:03.983Z,4.08
2019-02-20T23:44:35.352Z,4.13
2019-02-20T23:47:06.666Z,4.14
2019-02-20T23:49:37.963Z,4.08
2019-02-20T23:52:09.216Z,4.02
2019-02-20T23:54:40.557Z,3.99
2019-02-20T23:57:11.801Z,4.05
2019-02-20T23:59:43.102Z,4.01
